createdAt,value
2022-12-16T00:02:30.226Z,1.50
2022-12-16T00:05:20.345Z,1.50
2022-12-16T00:08:07.832Z,1.50
2022-12-16T00:11:00.079Z,1.50
2022-12-16T00:13:48.718Z,1.40
2022-12-16T00:16:36.414Z,1.40
2022-12-16T00:19:24.788Z,1.40
2022-12-16T00:22:12.307Z,1.50
2022-12-16T00:24:59.807Z,1.40
2022-12-16T00:27:47.354Z,1.40
2022-12-16T00:30:35.023Z,1.40
2022-12-16T00:33:26.520Z,1.40
2022-12-16T00:36:14.535Z,1.40
2022-12-16T00:39:03.548Z,1.40
2022-12-16T00:41:51.707Z,1.40
2022-12-16T00:44:39.435Z,1.40
2022-12-16T00:47:26.900Z,1.40
2022-12-16T00:50:14.508Z,1.40
2022-12-16T00:53:02.991Z,1.40
2022-12-16T00:55:50.825Z,1.40
2022-12-16T00:58:39.511Z,1.40
2022-12-16T01:01:27.120Z,1.40
2022-12-16T01:04:14.760Z,1.40
2022-12-16T01:07:02.440Z,1.40
2022-12-16T01:09:50.030Z,1.40
2022-12-16T01:12:38.961Z,1.40
2022-12-16T01:15:27.311Z,1.40
2022-12-16T01:18:16.380Z,1.40
2022-12-16T01:21:11.333Z,1.40
2022-12-16T01:23:59.649Z,1.40
2022-12-16T01:26:47.176Z,1.40
2022-12-16T01:29:34.801Z,1.50
2022-12-16T01:32:22.780Z,1.50
2022-12-16T01:35:29.461Z,1.40
2022-12-16T01:38:17.935Z,1.50
2022-12-16T01:41:06.511Z,1.50
2022-12-16T01:44:14.187Z,1.50
2022-12-16T01:47:06.053Z,1.50
2022-12-16T01:50:15.216Z,1.50
2022-12-16T01:53:06.583Z,1.50
2022-12-16T01:55:57.027Z,1.50
2022-12-16T01:58:45.982Z,1.50
2022-12-16T02:01:33.556Z,1.50
2022-12-16T02:04:21.536Z,1.50
2022-12-16T02:07:09.016Z,1.50
2022-12-16T02:09:57.631Z,1.50
2022-12-16T02:13:19.237Z,1.50
2022-12-16T02:16:36.913Z,1.50
2022-12-16T02:19:33.218Z,1.50
2022-12-16T02:22:51.163Z,1.60
2022-12-16T02:26:19.317Z,1.50
2022-12-16T02:29:53.241Z,1.50
2022-12-16T02:33:22.449Z,1.50
2022-12-16T02:36:52.966Z,1.50
2022-12-16T02:39:52.696Z,1.50
2022-12-16T02:43:19.917Z,1.50
2022-12-16T02:46:10.111Z,1.50
2022-12-16T02:48:57.876Z,1.50
2022-12-16T02:51:45.812Z,1.40
2022-12-16T02:54:33.437Z,1.40
2022-12-16T02:58:07.778Z,1.30
2022-12-16T03:01:34.030Z,1.40
2022-12-16T03:05:21.849Z,1.40
2022-12-16T03:08:38.122Z,1.40
2022-12-16T03:11:30.754Z,1.40
2022-12-16T03:14:23.241Z,1.40
2022-12-16T03:17:14.097Z,1.40
2022-12-16T03:20:19.799Z,1.40
2022-12-16T03:23:16.416Z,1.30
2022-12-16T03:26:12.753Z,1.30
2022-12-16T03:29:22.002Z,1.30
2022-12-16T03:32:24.716Z,1.30
2022-12-16T03:35:29.004Z,1.20
2022-12-16T03:38:19.401Z,1.20
2022-12-16T03:41:08.191Z,1.20
2022-12-16T03:43:56.372Z,1.20
2022-12-16T03:46:44.039Z,1.20
2022-12-16T03:49:31.702Z,1.20
2022-12-16T03:52:19.197Z,1.20
2022-12-16T03:55:06.975Z,1.20
2022-12-16T03:57:55.721Z,1.10
2022-12-16T04:00:43.301Z,1.10
2022-12-16T04:03:31.286Z,1.10
2022-12-16T04:06:19.044Z,1.10
2022-12-16T04:09:06.616Z,1.10
2022-12-16T04:12:12.962Z,1.00
2022-12-16T04:15:19.171Z,1.00
2022-12-16T04:18:35.484Z,1.00
2022-12-16T04:21:41.925Z,1.00
2022-12-16T04:24:31.079Z,1.00
2022-12-16T04:27:27.987Z,1.00
2022-12-16T04:30:19.119Z,1.00
2022-12-16T04:33:31.286Z,1.00
2022-12-16T04:36:38.357Z,1.00
2022-12-16T04:39:44.621Z,0.90
2022-12-16T04:42:51.492Z,0.90
2022-12-16T04:45:58.426Z,0.90
2022-12-16T04:49:04.911Z,0.90
2022-12-16T04:52:11.391Z,0.90
2022-12-16T04:55:17.797Z,0.90
2022-12-16T04:58:24.222Z,0.90
2022-12-16T05:01:30.482Z,0.80
2022-12-16T05:04:36.931Z,0.80
2022-12-16T05:07:42.822Z,0.90
2022-12-16T05:10:49.070Z,0.80
2022-12-16T05:13:55.295Z,0.80
2022-12-16T05:17:01.546Z,0.80
2022-12-16T05:20:07.912Z,1.00
2022-12-16T05:23:17.275Z,0.80
2022-12-16T05:26:23.521Z,0.80
2022-12-16T05:29:29.836Z,0.80
2022-12-16T05:32:36.422Z,0.80
2022-12-16T05:35:42.896Z,0.80
2022-12-16T05:38:49.227Z,0.90
2022-12-16T05:41:55.497Z,0.90
2022-12-16T05:45:02.055Z,0.90
2022-12-16T05:48:08.428Z,0.90
2022-12-16T05:51:14.600Z,0.90
2022-12-16T05:54:20.560Z,0.90
2022-12-16T05:57:26.477Z,0.80
2022-12-16T06:00:44.000Z,0.80
2022-12-16T06:03:49.986Z,0.80
2022-12-16T06:06:57.115Z,0.80
2022-12-16T06:10:03.436Z,0.80
2022-12-16T06:13:09.490Z,0.80
2022-12-16T06:16:15.597Z,0.80
2022-12-16T06:19:21.882Z,0.80
2022-12-16T06:22:28.162Z,0.80
2022-12-16T06:25:34.264Z,0.80
2022-12-16T06:28:45.706Z,0.80
2022-12-16T06:31:52.257Z,0.80
2022-12-16T06:34:58.561Z,0.80
2022-12-16T06:38:07.746Z,0.90
2022-12-16T06:41:13.992Z,0.80
2022-12-16T06:44:20.280Z,0.80
2022-12-16T06:47:26.191Z,0.80
2022-12-16T06:50:32.552Z,0.90
2022-12-16T06:53:38.795Z,0.90
2022-12-16T06:56:45.092Z,0.80
2022-12-16T06:59:51.020Z,0.80
2022-12-16T07:02:57.417Z,0.90
2022-12-16T07:06:03.896Z,0.80
2022-12-16T07:09:10.161Z,0.90
2022-12-16T07:12:16.476Z,0.90
2022-12-16T07:15:23.306Z,0.90
2022-12-16T07:18:29.506Z,0.90
2022-12-16T07:21:35.291Z,0.90
2022-12-16T07:24:52.180Z,0.90
2022-12-16T07:27:58.342Z,1.00
2022-12-16T07:31:04.681Z,1.10
2022-12-16T07:34:11.006Z,1.10
2022-12-16T07:37:17.371Z,1.10
2022-12-16T07:40:24.211Z,1.10
2022-12-16T07:43:30.319Z,1.10
2022-12-16T07:46:36.350Z,1.10
2022-12-16T07:49:42.927Z,1.10
2022-12-16T07:52:49.150Z,1.10
2022-12-16T07:55:55.340Z,1.10
2022-12-16T07:59:01.517Z,1.10
2022-12-16T08:02:07.997Z,1.10
2022-12-16T08:05:14.889Z,1.10
2022-12-16T08:08:21.216Z,1.10
2022-12-16T08:11:27.684Z,1.10
2022-12-16T08:14:33.814Z,1.10
2022-12-16T08:17:40.145Z,1.10
2022-12-16T08:20:46.267Z,1.10
2022-12-16T08:23:52.621Z,1.20
2022-12-16T08:26:59.913Z,1.20
2022-12-16T08:30:06.117Z,1.20
2022-12-16T08:33:18.888Z,1.20
2022-12-16T08:36:26.232Z,1.20
2022-12-16T08:39:32.232Z,1.20
2022-12-16T08:42:38.607Z,1.20
2022-12-16T08:45:45.111Z,1.20
2022-12-16T08:48:51.352Z,1.30
2022-12-16T08:51:57.451Z,1.30
2022-12-16T08:55:03.472Z,1.30
2022-12-16T08:58:15.788Z,1.40
2022-12-16T09:01:23.748Z,1.40
2022-12-16T09:04:30.132Z,1.50
2022-12-16T09:07:36.823Z,1.50
2022-12-16T09:10:43.001Z,1.50
2022-12-16T09:13:49.375Z,1.50
2022-12-16T09:16:57.253Z,1.50
2022-12-16T09:20:03.125Z,1.50
2022-12-16T09:23:09.291Z,1.60
2022-12-16T09:26:18.536Z,1.50
2022-12-16T09:29:24.689Z,1.50
2022-12-16T09:32:30.828Z,1.50
2022-12-16T09:35:36.817Z,1.50
2022-12-16T09:38:43.192Z,1.60
2022-12-16T09:42:03.713Z,1.60
2022-12-16T09:45:50.744Z,1.60
2022-12-16T09:49:24.531Z,1.60
2022-12-16T09:52:42.503Z,1.70
2022-12-16T09:56:15.667Z,1.80
2022-12-16T09:59:31.353Z,2.00
2022-12-16T10:02:39.859Z,2.10
2022-12-16T10:06:26.889Z,2.20
2022-12-16T10:10:06.682Z,2.20
2022-12-16T10:13:36.911Z,2.20
2022-12-16T10:17:15.406Z,2.20
2022-12-16T10:20:58.767Z,2.10
2022-12-16T10:24:29.681Z,2.00
2022-12-16T10:27:45.948Z,2.00
2022-12-16T10:30:56.789Z,2.00
2022-12-16T10:34:08.204Z,2.00
2022-12-16T10:37:20.702Z,2.00
2022-12-16T10:40:38.396Z,2.00
2022-12-16T10:43:56.412Z,2.00
2022-12-16T10:47:02.631Z,1.90
2022-12-16T10:50:17.307Z,1.90
2022-12-16T10:53:35.058Z,1.90
2022-12-16T10:57:14.001Z,1.90
2022-12-16T11:00:35.745Z,2.00
2022-12-16T11:03:46.503Z,2.00
2022-12-16T11:07:00.374Z,2.00
2022-12-16T11:10:06.627Z,2.10
2022-12-16T11:13:12.982Z,2.10
2022-12-16T11:16:48.275Z,2.20
2022-12-16T11:19:54.348Z,2.30
2022-12-16T11:23:00.822Z,2.40
2022-12-16T11:26:24.346Z,2.50
2022-12-16T11:29:40.615Z,2.50
2022-12-16T11:32:47.361Z,2.50
2022-12-16T11:36:00.951Z,2.40
2022-12-16T11:39:10.758Z,2.30
2022-12-16T11:42:39.267Z,2.30
2022-12-16T11:45:45.531Z,2.20
2022-12-16T11:49:13.553Z,2.10
2022-12-16T11:52:39.446Z,2.00
2022-12-16T11:56:06.864Z,1.90
2022-12-16T11:59:21.961Z,1.80
2022-12-16T12:02:47.461Z,1.80
2022-12-16T12:06:24.331Z,1.80
2022-12-16T12:09:39.326Z,1.80
2022-12-16T12:13:17.569Z,1.80
2022-12-16T12:17:09.025Z,1.80
2022-12-16T12:20:29.274Z,1.80
2022-12-16T12:24:01.874Z,1.80
2022-12-16T12:27:29.561Z,1.80
2022-12-16T12:30:40.592Z,1.90
2022-12-16T12:34:26.611Z,1.90
2022-12-16T12:37:58.281Z,1.80
2022-12-16T12:41:33.808Z,1.80
2022-12-16T12:44:57.338Z,1.80
2022-12-16T12:48:27.731Z,1.80
2022-12-16T12:52:07.452Z,1.80
2022-12-16T12:55:31.636Z,1.80
2022-12-16T12:58:38.871Z,1.80
2022-12-16T13:01:53.122Z,1.70
2022-12-16T13:05:01.626Z,1.70
2022-12-16T13:08:07.928Z,1.70
2022-12-16T13:11:35.105Z,1.70
2022-12-16T13:14:51.536Z,1.70
2022-12-16T13:18:43.297Z,1.70
2022-12-16T13:22:07.700Z,1.70
2022-12-16T13:25:13.916Z,1.70
2022-12-16T13:28:20.012Z,1.70
2022-12-16T13:31:28.813Z,1.70
2022-12-16T13:34:35.291Z,1.70
2022-12-16T13:37:46.450Z,1.70
2022-12-16T13:41:08.586Z,1.70
2022-12-16T13:44:19.626Z,1.60
2022-12-16T13:48:00.681Z,1.60
2022-12-16T13:51:18.613Z,1.60
2022-12-16T13:54:27.131Z,1.50
2022-12-16T13:57:43.023Z,1.60
2022-12-16T14:00:57.957Z,1.50
2022-12-16T14:04:11.180Z,1.50
2022-12-16T14:07:24.607Z,1.50
2022-12-16T14:10:51.837Z,1.50
2022-12-16T14:14:26.876Z,1.40
2022-12-16T14:18:04.465Z,1.40
2022-12-16T14:21:19.946Z,1.40
2022-12-16T14:24:44.976Z,1.40
2022-12-16T14:27:54.097Z,1.30
2022-12-16T14:31:01.026Z,1.30
2022-12-16T14:34:12.912Z,1.20
2022-12-16T14:37:23.877Z,1.20
2022-12-16T14:40:49.371Z,1.10
2022-12-16T14:43:55.472Z,1.20
2022-12-16T14:47:08.896Z,1.20
2022-12-16T14:50:14.761Z,1.20
2022-12-16T14:53:41.721Z,1.10
2022-12-16T14:56:49.721Z,1.10
2022-12-16T14:59:56.196Z,1.10
2022-12-16T15:03:07.881Z,1.10
2022-12-16T15:06:16.156Z,1.10
2022-12-16T15:09:25.117Z,1.10
2022-12-16T15:12:34.406Z,1.00
2022-12-16T15:15:55.908Z,1.00
2022-12-16T15:19:17.310Z,1.00
2022-12-16T15:22:23.830Z,1.00
2022-12-16T15:25:45.497Z,1.00
2022-12-16T15:28:54.638Z,1.00
2022-12-16T15:32:03.572Z,1.10
2022-12-16T15:35:10.241Z,1.00
2022-12-16T15:38:16.726Z,1.00
2022-12-16T15:41:25.136Z,1.00
2022-12-16T15:44:49.866Z,1.00
2022-12-16T15:47:57.641Z,1.00
2022-12-16T15:51:12.219Z,0.90
2022-12-16T15:54:22.777Z,0.90
2022-12-16T15:57:49.013Z,0.90
2022-12-16T16:00:55.834Z,0.90
2022-12-16T16:04:10.309Z,0.90
2022-12-16T16:07:16.782Z,0.90
2022-12-16T16:10:41.830Z,0.90
2022-12-16T16:13:48.636Z,0.90
2022-12-16T16:16:55.031Z,0.90
2022-12-16T16:20:03.773Z,0.90
2022-12-16T16:23:09.957Z,0.90
2022-12-16T16:26:16.782Z,0.90
2022-12-16T16:29:23.911Z,0.90
2022-12-16T16:32:30.459Z,0.90
2022-12-16T16:35:36.541Z,0.90
2022-12-16T16:38:42.716Z,0.90
2022-12-16T16:41:49.187Z,0.90
2022-12-16T16:44:55.141Z,0.90
2022-12-16T16:48:01.427Z,0.90
2022-12-16T16:51:07.441Z,0.90
2022-12-16T16:54:16.842Z,0.90
2022-12-16T16:57:22.800Z,0.90
2022-12-16T17:00:30.134Z,0.90
2022-12-16T17:03:37.486Z,0.90
2022-12-16T17:06:44.280Z,0.90
2022-12-16T17:09:50.185Z,0.90
2022-12-16T17:12:59.918Z,0.90
2022-12-16T17:16:10.449Z,0.80
2022-12-16T17:19:18.038Z,0.90
2022-12-16T17:22:24.124Z,0.80
2022-12-16T17:25:31.808Z,0.80
2022-12-16T17:28:38.315Z,0.80
2022-12-16T17:31:44.702Z,0.80
2022-12-16T17:34:51.066Z,0.80
2022-12-16T17:37:58.943Z,0.80
2022-12-16T17:41:11.635Z,0.80
2022-12-16T17:44:17.892Z,0.80
2022-12-16T17:47:24.253Z,0.80
2022-12-16T17:50:30.232Z,0.80
2022-12-16T17:53:37.018Z,0.80
2022-12-16T17:56:43.591Z,0.70
2022-12-16T17:59:54.506Z,0.70
2022-12-16T18:03:01.350Z,0.80
2022-12-16T18:06:07.791Z,0.80
2022-12-16T18:09:14.183Z,0.70
2022-12-16T18:12:20.140Z,0.70
2022-12-16T18:15:27.843Z,0.70
2022-12-16T18:18:33.926Z,0.70
2022-12-16T18:21:40.051Z,0.70
2022-12-16T18:24:48.570Z,0.60
2022-12-16T18:27:55.660Z,0.60
2022-12-16T18:31:01.717Z,0.60
2022-12-16T18:34:07.918Z,0.60
2022-12-16T18:37:14.326Z,0.50
2022-12-16T18:40:20.671Z,0.50
2022-12-16T18:43:29.477Z,0.50
2022-12-16T18:46:35.812Z,0.50
2022-12-16T18:49:42.113Z,0.50
2022-12-16T18:52:48.980Z,0.50
2022-12-16T18:55:55.346Z,0.50
2022-12-16T18:59:01.884Z,0.50
2022-12-16T19:02:08.157Z,0.50
2022-12-16T19:05:14.472Z,0.50
2022-12-16T19:08:20.591Z,0.50
2022-12-16T19:11:26.781Z,0.40
2022-12-16T19:14:32.848Z,0.40
2022-12-16T19:17:39.141Z,0.40
2022-12-16T19:20:45.130Z,0.40
2022-12-16T19:23:51.411Z,0.40
2022-12-16T19:26:58.307Z,0.40
2022-12-16T19:30:04.351Z,0.40
2022-12-16T19:33:10.685Z,0.40
2022-12-16T19:36:16.848Z,0.40
2022-12-16T19:39:23.204Z,0.30
2022-12-16T19:42:29.537Z,0.30
2022-12-16T19:45:35.789Z,0.30
2022-12-16T19:48:41.947Z,0.30
2022-12-16T19:51:47.880Z,0.30
2022-12-16T19:54:56.145Z,0.20
2022-12-16T19:58:02.486Z,0.10
2022-12-16T20:01:08.706Z,0.10
2022-12-16T20:04:15.956Z,0.10
2022-12-16T20:10:47.886Z,0.00
2022-12-16T20:17:20.061Z,0.00
2022-12-16T20:20:26.422Z,-0.10
2022-12-16T20:23:32.651Z,-0.10
2022-12-16T20:26:38.970Z,-0.10
2022-12-16T20:29:45.216Z,-0.10
2022-12-16T20:32:51.542Z,-0.10
2022-12-16T20:35:58.100Z,-0.10
2022-12-16T20:39:05.267Z,-0.10
2022-12-16T20:42:11.709Z,-0.10
2022-12-16T20:45:18.141Z,-0.10
2022-12-16T20:48:24.644Z,-0.10
2022-12-16T20:51:30.747Z,-0.10
2022-12-16T20:54:36.970Z,-0.10
2022-12-16T20:57:43.237Z,-0.10
2022-12-16T21:00:49.250Z,-0.10
2022-12-16T21:03:55.277Z,-0.10
2022-12-16T21:07:02.715Z,-0.10
2022-12-16T21:10:08.942Z,-0.10
2022-12-16T21:13:15.652Z,-0.10
2022-12-16T21:16:25.757Z,-0.10
2022-12-16T21:19:36.211Z,-0.10
2022-12-16T21:22:42.135Z,-0.10
2022-12-16T21:25:48.062Z,-0.10
2022-12-16T21:28:56.250Z,-0.20
2022-12-16T21:32:02.292Z,-0.20
2022-12-16T21:35:08.191Z,-0.20
2022-12-16T21:38:17.059Z,-0.20
2022-12-16T21:41:23.352Z,-0.10
2022-12-16T21:44:29.711Z,-0.10
2022-12-16T21:47:35.657Z,-0.10
2022-12-16T21:50:45.105Z,-0.10
2022-12-16T21:53:53.503Z,-0.10
2022-12-16T21:56:59.716Z,-0.10
2022-12-16T22:00:06.151Z,-0.10
2022-12-16T22:03:14.455Z,-0.10
2022-12-16T22:06:20.480Z,-0.10
2022-12-16T22:09:26.683Z,-0.10
2022-12-16T22:12:33.544Z,-0.20
2022-12-16T22:15:40.276Z,-0.20
2022-12-16T22:18:46.695Z,-0.20
2022-12-16T22:21:52.855Z,-0.20
2022-12-16T22:24:59.781Z,-0.20
2022-12-16T22:28:06.127Z,-0.20
2022-12-16T22:31:16.082Z,-0.20
2022-12-16T22:34:22.741Z,-0.20
2022-12-16T22:37:29.022Z,-0.20
2022-12-16T22:40:35.416Z,-0.20
2022-12-16T22:43:49.527Z,-0.20
2022-12-16T22:46:56.217Z,-0.20
2022-12-16T22:50:02.303Z,-0.20
2022-12-16T22:53:09.604Z,-0.20
2022-12-16T22:56:15.940Z,-0.20
2022-12-16T22:59:22.322Z,-0.30
2022-12-16T23:02:28.793Z,-0.30
2022-12-16T23:05:35.951Z,-0.40
2022-12-16T23:08:42.133Z,-0.40
2022-12-16T23:11:56.853Z,-0.40
2022-12-16T23:15:02.869Z,-0.40
2022-12-16T23:18:09.195Z,-0.30
2022-12-16T23:21:16.100Z,-0.30
2022-12-16T23:24:23.243Z,-0.30
2022-12-16T23:27:29.563Z,-0.30
2022-12-16T23:30:35.776Z,-0.40
2022-12-16T23:33:41.996Z,-0.30
2022-12-16T23:36:47.963Z,-0.30
2022-12-16T23:39:54.106Z,-0.30
2022-12-16T23:43:02.623Z,-0.20
2022-12-16T23:46:08.854Z,-0.20
2022-12-16T23:49:16.151Z,-0.20
2022-12-16T23:52:22.211Z,-0.20
2022-12-16T23:55:28.966Z,-0.20
2022-12-16T23:58:34.967Z,-0.20
